sensor_id;sensor_type;location;lat;lon;timestamp;temperature;humidity
7159;DHT22;63175;52.374;13.132;2024-03-08T00:00:08;4.00;90.00
7159;DHT22;63175;52.374;13.132;2024-03-08T00:02:37;3.90;90.30
7159;DHT22;63175;52.374;13.132;2024-03-08T00:05:05;3.90;90.50
7159;DHT22;63175;52.374;13.132;2024-03-08T00:07:34;3.80;90.80
7159;DHT22;63175;52.374;13.132;2024-03-08T00:10:02;3.80;91.00
7159;DHT22;63175;52.374;13.132;2024-03-08T00:12:29;3.80;91.20
7159;DHT22;63175;52.374;13.132;2024-03-08T00:14:56;3.80;91.40
7159;DHT22;63175;52.374;13.132;2024-03-08T00:17:23;3.80;91.60
7159;DHT22;63175;52.374;13.132;2024-03-08T00:19:50;3.80;91.80
7159;DHT22;63175;52.374;13.132;2024-03-08T00:22:17;3.80;92.10
7159;DHT22;63175;52.374;13.132;2024-03-08T00:24:44;3.70;92.20
7159;DHT22;63175;52.374;13.132;2024-03-08T00:27:12;3.70;92.40
7159;DHT22;63175;52.374;13.132;2024-03-08T00:29:39;3.70;92.70
7159;DHT22;63175;52.374;13.132;2024-03-08T00:32:06;3.60;92.90
7159;DHT22;63175;52.374;13.132;2024-03-08T00:34:35;3.60;93.30
7159;DHT22;63175;52.374;13.132;2024-03-08T00:37:03;3.60;93.60
7159;DHT22;63175;52.374;13.132;2024-03-08T00:39:31;3.60;93.80
7159;DHT22;63175;52.374;13.132;2024-03-08T00:41:58;3.60;93.90
7159;DHT22;63175;52.374;13.132;2024-03-08T00:44:26;3.50;94.10
7159;DHT22;63175;52.374;13.132;2024-03-08T00:46:53;3.50;94.30
7159;DHT22;63175;52.374;13.132;2024-03-08T00:49:19;3.50;94.60
7159;DHT22;63175;52.374;13.132;2024-03-08T00:51:47;3.50;95.00
7159;DHT22;63175;52.374;13.132;2024-03-08T00:54:14;3.50;95.50
7159;DHT22;63175;52.374;13.132;2024-03-08T00:56:42;3.50;95.80
7159;DHT22;63175;52.374;13.132;2024-03-08T00:59:08;3.50;95.70
7159;DHT22;63175;52.374;13.132;2024-03-08T01:01:37;3.50;95.90
7159;DHT22;63175;52.374;13.132;2024-03-08T01:04:04;3.50;96.20
7159;DHT22;63175;52.374;13.132;2024-03-08T01:06:31;3.40;96.30
7159;DHT22;63175;52.374;13.132;2024-03-08T01:08:58;3.40;96.50
7159;DHT22;63175;52.374;13.132;2024-03-08T01:11:25;3.50;96.60
7159;DHT22;63175;52.374;13.132;2024-03-08T01:13:53;3.40;96.70
7159;DHT22;63175;52.374;13.132;2024-03-08T01:16:20;3.50;96.90
7159;DHT22;63175;52.374;13.132;2024-03-08T01:18:48;3.50;96.90
7159;DHT22;63175;52.374;13.132;2024-03-08T01:21:15;3.40;97.00
7159;DHT22;63175;52.374;13.132;2024-03-08T01:23:42;3.40;97.20
7159;DHT22;63175;52.374;13.132;2024-03-08T01:26:09;3.40;97.30
7159;DHT22;63175;52.374;13.132;2024-03-08T01:28:36;3.40;97.20
7159;DHT22;63175;52.374;13.132;2024-03-08T01:31:03;3.40;97.60
7159;DHT22;63175;52.374;13.132;2024-03-08T01:33:31;3.30;97.50
7159;DHT22;63175;52.374;13.132;2024-03-08T01:35:59;3.30;97.90
7159;DHT22;63175;52.374;13.132;2024-03-08T01:38:26;3.30;98.00
7159;DHT22;63175;52.374;13.132;2024-03-08T01:40:52;3.30;98.20
7159;DHT22;63175;52.374;13.132;2024-03-08T01:43:20;3.30;98.20
7159;DHT22;63175;52.374;13.132;2024-03-08T01:45:47;3.30;98.60
7159;DHT22;63175;52.374;13.132;2024-03-08T01:48:15;3.30;98.40
7159;DHT22;63175;52.374;13.132;2024-03-08T01:50:43;3.20;98.40
7159;DHT22;63175;52.374;13.132;2024-03-08T01:53:11;3.30;98.50
7159;DHT22;63175;52.374;13.132;2024-03-08T01:55:40;3.30;98.50
7159;DHT22;63175;52.374;13.132;2024-03-08T01:58:09;3.30;98.50
7159;DHT22;63175;52.374;13.132;2024-03-08T02:00:36;3.30;98.60
7159;DHT22;63175;52.374;13.132;2024-03-08T02:03:05;3.30;98.60
7159;DHT22;63175;52.374;13.132;2024-03-08T02:05:32;3.20;98.80
7159;DHT22;63175;52.374;13.132;2024-03-08T02:07:59;3.20;99.00
7159;DHT22;63175;52.374;13.132;2024-03-08T02:10:27;3.20;99.10
7159;DHT22;63175;52.374;13.132;2024-03-08T02:12:54;3.10;99.30
7159;DHT22;63175;52.374;13.132;2024-03-08T02:15:21;3.10;99.40
7159;DHT22;63175;52.374;13.132;2024-03-08T02:17:48;3.10;99.60
7159;DHT22;63175;52.374;13.132;2024-03-08T02:20:15;3.00;99.90
7159;DHT22;63175;52.374;13.132;2024-03-08T02:22:43;3.00;99.90
7159;DHT22;63175;52.374;13.132;2024-03-08T02:25:10;2.90;99.90
7159;DHT22;63175;52.374;13.132;2024-03-08T02:27:37;2.90;99.90
7159;DHT22;63175;52.374;13.132;2024-03-08T02:30:05;2.80;99.90
7159;DHT22;63175;52.374;13.132;2024-03-08T02:32:32;2.80;99.90
7159;DHT22;63175;52.374;13.132;2024-03-08T02:34:59;2.80;99.90
7159;DHT22;63175;52.374;13.132;2024-03-08T02:37:26;2.80;99.90
7159;DHT22;63175;52.374;13.132;2024-03-08T02:39:55;2.70;99.90
7159;DHT22;63175;52.374;13.132;2024-03-08T02:42:21;2.70;99.90
7159;DHT22;63175;52.374;13.132;2024-03-08T02:44:48;2.70;99.90
7159;DHT22;63175;52.374;13.132;2024-03-08T02:47:15;2.70;99.90
7159;DHT22;63175;52.374;13.132;2024-03-08T02:49:41;2.60;99.90
7159;DHT22;63175;52.374;13.132;2024-03-08T02:52:08;2.60;99.90
7159;DHT22;63175;52.374;13.132;2024-03-08T02:54:35;2.50;99.90
7159;DHT22;63175;52.374;13.132;2024-03-08T02:57:03;2.50;99.90
7159;DHT22;63175;52.374;13.132;2024-03-08T02:59:32;2.50;99.90
7159;DHT22;63175;52.374;13.132;2024-03-08T03:01:59;2.50;99.90
7159;DHT22;63175;52.374;13.132;2024-03-08T03:04:26;2.50;99.90
7159;DHT22;63175;52.374;13.132;2024-03-08T03:06:53;2.40;99.90
7159;DHT22;63175;52.374;13.132;2024-03-08T03:09:20;2.40;99.90
7159;DHT22;63175;52.374;13.132;2024-03-08T03:11:52;2.40;99.90
7159;DHT22;63175;52.374;13.132;2024-03-08T03:14:20;2.40;99.90
7159;DHT22;63175;52.374;13.132;2024-03-08T03:16:47;2.30;99.90
7159;DHT22;63175;52.374;13.132;2024-03-08T03:19:13;2.30;99.90
7159;DHT22;63175;52.374;13.132;2024-03-08T03:21:40;2.30;99.90
7159;DHT22;63175;52.374;13.132;2024-03-08T03:24:08;2.30;99.90
7159;DHT22;63175;52.374;13.132;2024-03-08T03:26:36;2.30;99.90
7159;DHT22;63175;52.374;13.132;2024-03-08T03:29:04;2.30;99.90
7159;DHT22;63175;52.374;13.132;2024-03-08T03:31:35;2.30;99.90
7159;DHT22;63175;52.374;13.132;2024-03-08T03:34:03;2.30;99.90
7159;DHT22;63175;52.374;13.132;2024-03-08T03:36:30;2.20;99.90
7159;DHT22;63175;52.374;13.132;2024-03-08T03:38:57;2.30;99.90
7159;DHT22;63175;52.374;13.132;2024-03-08T03:41:35;2.20;99.90
7159;DHT22;63175;52.374;13.132;2024-03-08T03:44:02;2.20;99.90
7159;DHT22;63175;52.374;13.132;2024-03-08T03:46:29;2.20;99.90
7159;DHT22;63175;52.374;13.132;2024-03-08T03:48:57;2.20;99.90
7159;DHT22;63175;52.374;13.132;2024-03-08T03:51:24;2.10;99.90
7159;DHT22;63175;52.374;13.132;2024-03-08T03:53:51;2.20;99.90
7159;DHT22;63175;52.374;13.132;2024-03-08T03:56:18;2.20;99.90
7159;DHT22;63175;52.374;13.132;2024-03-08T03:58:45;2.10;99.90
7159;DHT22;63175;52.374;13.132;2024-03-08T04:01:12;2.10;99.90
7159;DHT22;63175;52.374;13.132;2024-03-08T04:03:41;2.10;99.90
7159;DHT22;63175;52.374;13.132;2024-03-08T04:06:09;2.00;99.90
7159;DHT22;63175;52.374;13.132;2024-03-08T04:08:36;2.00;99.90
7159;DHT22;63175;52.374;13.132;2024-03-08T04:11:03;2.00;99.90
7159;DHT22;63175;52.374;13.132;2024-03-08T04:13:30;1.90;99.90
7159;DHT22;63175;52.374;13.132;2024-03-08T04:15:56;1.90;99.90
7159;DHT22;63175;52.374;13.132;2024-03-08T04:18:23;1.90;99.90
7159;DHT22;63175;52.374;13.132;2024-03-08T04:20:50;1.90;99.90
7159;DHT22;63175;52.374;13.132;2024-03-08T04:23:18;1.90;99.90
7159;DHT22;63175;52.374;13.132;2024-03-08T04:25:45;1.90;99.90
7159;DHT22;63175;52.374;13.132;2024-03-08T04:28:11;1.80;99.90
7159;DHT22;63175;52.374;13.132;2024-03-08T04:30:38;1.80;99.90
7159;DHT22;63175;52.374;13.132;2024-03-08T04:33:05;1.70;99.90
7159;DHT22;63175;52.374;13.132;2024-03-08T04:35:34;1.70;99.90
7159;DHT22;63175;52.374;13.132;2024-03-08T04:38:00;1.70;99.90
7159;DHT22;63175;52.374;13.132;2024-03-08T04:40:28;1.70;99.90
7159;DHT22;63175;52.374;13.132;2024-03-08T04:42:58;1.70;99.90
7159;DHT22;63175;52.374;13.132;2024-03-08T04:45:25;1.70;99.90
7159;DHT22;63175;52.374;13.132;2024-03-08T04:47:52;1.60;99.90
7159;DHT22;63175;52.374;13.132;2024-03-08T04:50:19;1.60;99.90
7159;DHT22;63175;52.374;13.132;2024-03-08T04:52:45;1.60;99.90
7159;DHT22;63175;52.374;13.132;2024-03-08T04:55:13;1.60;99.90
7159;DHT22;63175;52.374;13.132;2024-03-08T04:57:41;1.60;99.90
7159;DHT22;63175;52.374;13.132;2024-03-08T05:00:10;1.70;99.90
7159;DHT22;63175;52.374;13.132;2024-03-08T05:02:37;1.60;99.90
7159;DHT22;63175;52.374;13.132;2024-03-08T05:05:04;1.60;99.90
7159;DHT22;63175;52.374;13.132;2024-03-08T05:07:32;1.60;99.90
7159;DHT22;63175;52.374;13.132;2024-03-08T05:09:59;1.60;99.90
7159;DHT22;63175;52.374;13.132;2024-03-08T05:12:27;1.60;99.90
7159;DHT22;63175;52.374;13.132;2024-03-08T05:14:55;1.60;99.90
7159;DHT22;63175;52.374;13.132;2024-03-08T05:17:22;1.50;99.90
7159;DHT22;63175;52.374;13.132;2024-03-08T05:19:50;1.60;99.90
7159;DHT22;63175;52.374;13.132;2024-03-08T05:22:16;1.60;99.90
7159;DHT22;63175;52.374;13.132;2024-03-08T05:24:44;1.60;99.90
7159;DHT22;63175;52.374;13.132;2024-03-08T05:27:11;1.50;99.90
7159;DHT22;63175;52.374;13.132;2024-03-08T05:29:38;1.50;99.90
7159;DHT22;63175;52.374;13.132;2024-03-08T05:32:06;1.50;99.90
7159;DHT22;63175;52.374;13.132;2024-03-08T05:34:33;1.50;99.90
7159;DHT22;63175;52.374;13.132;2024-03-08T05:37:00;1.50;99.90
7159;DHT22;63175;52.374;13.132;2024-03-08T05:39:27;1.40;99.90
7159;DHT22;63175;52.374;13.132;2024-03-08T05:41:54;1.40;99.90
7159;DHT22;63175;52.374;13.132;2024-03-08T05:44:21;1.40;99.90
7159;DHT22;63175;52.374;13.132;2024-03-08T05:46:48;1.40;99.90
7159;DHT22;63175;52.374;13.132;2024-03-08T05:49:17;1.40;99.90
7159;DHT22;63175;52.374;13.132;2024-03-08T05:51:44;1.50;99.90
7159;DHT22;63175;52.374;13.132;2024-03-08T05:54:13;1.50;99.90
7159;DHT22;63175;52.374;13.132;2024-03-08T05:56:40;1.40;99.90
7159;DHT22;63175;52.374;13.132;2024-03-08T05:59:07;1.40;99.90
7159;DHT22;63175;52.374;13.132;2024-03-08T06:01:34;1.50;99.90
7159;DHT22;63175;52.374;13.132;2024-03-08T06:04:02;1.50;99.90
7159;DHT22;63175;52.374;13.132;2024-03-08T06:06:30;1.50;99.90
7159;DHT22;63175;52.374;13.132;2024-03-08T06:08:57;1.60;99.90
7159;DHT22;63175;52.374;13.132;2024-03-08T06:11:24;1.60;99.90
7159;DHT22;63175;52.374;13.132;2024-03-08T06:13:52;1.60;99.90
7159;DHT22;63175;52.374;13.132;2024-03-08T06:16:25;1.60;99.90
7159;DHT22;63175;52.374;13.132;2024-03-08T06:18:54;1.70;99.90
7159;DHT22;63175;52.374;13.132;2024-03-08T06:21:22;1.70;99.90
7159;DHT22;63175;52.374;13.132;2024-03-08T06:23:52;1.80;99.90
7159;DHT22;63175;52.374;13.132;2024-03-08T06:26:20;1.90;99.90
7159;DHT22;63175;52.374;13.132;2024-03-08T06:28:47;1.90;99.90
7159;DHT22;63175;52.374;13.132;2024-03-08T06:31:14;2.00;99.90
7159;DHT22;63175;52.374;13.132;2024-03-08T06:33:41;2.00;99.90
7159;DHT22;63175;52.374;13.132;2024-03-08T06:36:09;2.10;99.90
7159;DHT22;63175;52.374;13.132;2024-03-08T06:38:37;2.20;99.90
7159;DHT22;63175;52.374;13.132;2024-03-08T06:41:09;2.20;99.90
7159;DHT22;63175;52.374;13.132;2024-03-08T06:43:40;2.30;99.90
7159;DHT22;63175;52.374;13.132;2024-03-08T06:46:07;2.40;99.90
7159;DHT22;63175;52.374;13.132;2024-03-08T06:48:34;2.50;99.90
7159;DHT22;63175;52.374;13.132;2024-03-08T06:51:02;2.60;99.90
7159;DHT22;63175;52.374;13.132;2024-03-08T06:53:29;2.70;99.90
7159;DHT22;63175;52.374;13.132;2024-03-08T06:55:56;2.80;99.90
7159;DHT22;63175;52.374;13.132;2024-03-08T06:58:24;2.90;99.90
7159;DHT22;63175;52.374;13.132;2024-03-08T07:00:51;3.00;99.90
7159;DHT22;63175;52.374;13.132;2024-03-08T07:03:18;3.20;99.90
7159;DHT22;63175;52.374;13.132;2024-03-08T07:05:45;3.20;99.90
7159;DHT22;63175;52.374;13.132;2024-03-08T07:08:11;3.40;99.90
7159;DHT22;63175;52.374;13.132;2024-03-08T07:10:39;3.50;99.90
7159;DHT22;63175;52.374;13.132;2024-03-08T07:13:07;3.60;99.90
7159;DHT22;63175;52.374;13.132;2024-03-08T07:15:35;3.70;99.90
7159;DHT22;63175;52.374;13.132;2024-03-08T07:18:02;3.80;99.90
7159;DHT22;63175;52.374;13.132;2024-03-08T07:20:29;4.00;99.90
7159;DHT22;63175;52.374;13.132;2024-03-08T07:22:56;4.10;99.90
7159;DHT22;63175;52.374;13.132;2024-03-08T07:25:22;4.20;99.90
7159;DHT22;63175;52.374;13.132;2024-03-08T07:27:51;4.40;99.90
7159;DHT22;63175;52.374;13.132;2024-03-08T07:30:18;4.50;99.90
7159;DHT22;63175;52.374;13.132;2024-03-08T07:33:15;4.60;99.90
7159;DHT22;63175;52.374;13.132;2024-03-08T07:35:42;4.80;99.90
7159;DHT22;63175;52.374;13.132;2024-03-08T07:38:09;4.90;99.90
7159;DHT22;63175;52.374;13.132;2024-03-08T07:40:37;5.10;99.90
7159;DHT22;63175;52.374;13.132;2024-03-08T07:43:05;5.20;99.90
7159;DHT22;63175;52.374;13.132;2024-03-08T07:45:32;5.40;99.90
7159;DHT22;63175;52.374;13.132;2024-03-08T07:47:59;5.60;99.90
7159;DHT22;63175;52.374;13.132;2024-03-08T07:50:27;5.80;99.90
7159;DHT22;63175;52.374;13.132;2024-03-08T07:52:54;5.90;99.90
7159;DHT22;63175;52.374;13.132;2024-03-08T07:55:21;6.10;99.90
7159;DHT22;63175;52.374;13.132;2024-03-08T07:57:49;6.30;99.90
7159;DHT22;63175;52.374;13.132;2024-03-08T08:00:17;6.50;99.90
7159;DHT22;63175;52.374;13.132;2024-03-08T08:02:44;6.60;99.90
7159;DHT22;63175;52.374;13.132;2024-03-08T08:05:11;6.70;99.90
7159;DHT22;63175;52.374;13.132;2024-03-08T08:07:40;6.90;99.90
7159;DHT22;63175;52.374;13.132;2024-03-08T08:10:09;7.00;99.50
7159;DHT22;63175;52.374;13.132;2024-03-08T08:12:42;7.20;99.10
7159;DHT22;63175;52.374;13.132;2024-03-08T08:15:09;7.20;98.70
7159;DHT22;63175;52.374;13.132;2024-03-08T08:17:35;7.40;98.30
7159;DHT22;63175;52.374;13.132;2024-03-08T08:20:03;7.50;97.40
7159;DHT22;63175;52.374;13.132;2024-03-08T08:22:31;7.60;97.00
7159;DHT22;63175;52.374;13.132;2024-03-08T08:24:59;7.70;96.60
7159;DHT22;63175;52.374;13.132;2024-03-08T08:27:25;7.80;96.30
7159;DHT22;63175;52.374;13.132;2024-03-08T08:29:52;7.90;96.00
7159;DHT22;63175;52.374;13.132;2024-03-08T08:32:19;8.00;95.30
7159;DHT22;63175;52.374;13.132;2024-03-08T08:34:46;8.20;95.10
7159;DHT22;63175;52.374;13.132;2024-03-08T08:37:13;8.30;94.70
7159;DHT22;63175;52.374;13.132;2024-03-08T08:39:40;8.40;94.30
7159;DHT22;63175;52.374;13.132;2024-03-08T08:42:08;8.60;93.80
7159;DHT22;63175;52.374;13.132;2024-03-08T08:44:36;8.70;93.20
7159;DHT22;63175;52.374;13.132;2024-03-08T08:47:03;8.90;92.60
7159;DHT22;63175;52.374;13.132;2024-03-08T08:49:30;9.00;91.70
7159;DHT22;63175;52.374;13.132;2024-03-08T08:51:57;9.20;90.90
7159;DHT22;63175;52.374;13.132;2024-03-08T08:54:24;9.30;90.30
7159;DHT22;63175;52.374;13.132;2024-03-08T08:56:52;9.40;89.80
7159;DHT22;63175;52.374;13.132;2024-03-08T08:59:21;9.60;88.40
7159;DHT22;63175;52.374;13.132;2024-03-08T09:01:50;9.80;86.50
7159;DHT22;63175;52.374;13.132;2024-03-08T09:04:19;9.90;85.00
7159;DHT22;63175;52.374;13.132;2024-03-08T09:06:47;10.00;81.80
7159;DHT22;63175;52.374;13.132;2024-03-08T09:09:13;10.20;79.70
7159;DHT22;63175;52.374;13.132;2024-03-08T09:11:42;10.30;78.00
7159;DHT22;63175;52.374;13.132;2024-03-08T09:14:09;10.40;76.90
7159;DHT22;63175;52.374;13.132;2024-03-08T09:16:38;10.50;76.10
7159;DHT22;63175;52.374;13.132;2024-03-08T09:19:05;10.60;75.30
7159;DHT22;63175;52.374;13.132;2024-03-08T09:21:32;10.70;73.40
7159;DHT22;63175;52.374;13.132;2024-03-08T09:24:00;10.90;71.60
7159;DHT22;63175;52.374;13.132;2024-03-08T09:26:26;11.00;69.70
7159;DHT22;63175;52.374;13.132;2024-03-08T09:28:53;11.10;68.10
7159;DHT22;63175;52.374;13.132;2024-03-08T09:31:20;11.20;67.30
7159;DHT22;63175;52.374;13.132;2024-03-08T09:33:48;11.40;66.30
7159;DHT22;63175;52.374;13.132;2024-03-08T09:36:16;11.60;65.50
7159;DHT22;63175;52.374;13.132;2024-03-08T09:38:42;11.80;64.20
7159;DHT22;63175;52.374;13.132;2024-03-08T09:41:09;12.00;63.10
7159;DHT22;63175;52.374;13.132;2024-03-08T09:43:38;12.20;61.00
7159;DHT22;63175;52.374;13.132;2024-03-08T09:46:06;12.40;60.30
7159;DHT22;63175;52.374;13.132;2024-03-08T09:48:34;12.60;59.00
7159;DHT22;63175;52.374;13.132;2024-03-08T09:51:03;12.90;58.20
7159;DHT22;63175;52.374;13.132;2024-03-08T09:53:30;13.10;58.20
7159;DHT22;63175;52.374;13.132;2024-03-08T09:55:57;13.50;57.50
7159;DHT22;63175;52.374;13.132;2024-03-08T09:58:24;13.70;55.20
7159;DHT22;63175;52.374;13.132;2024-03-08T10:01:14;14.00;54.20
7159;DHT22;63175;52.374;13.132;2024-03-08T10:03:41;14.20;51.50
7159;DHT22;63175;52.374;13.132;2024-03-08T10:06:09;14.40;51.10
7159;DHT22;63175;52.374;13.132;2024-03-08T10:08:36;14.60;49.80
7159;DHT22;63175;52.374;13.132;2024-03-08T10:11:03;14.70;49.00
7159;DHT22;63175;52.374;13.132;2024-03-08T10:13:30;14.80;48.10
7159;DHT22;63175;52.374;13.132;2024-03-08T10:15:57;15.00;48.00
7159;DHT22;63175;52.374;13.132;2024-03-08T10:18:23;15.10;47.40
7159;DHT22;63175;52.374;13.132;2024-03-08T10:21:03;15.20;47.30
7159;DHT22;63175;52.374;13.132;2024-03-08T10:23:32;15.30;47.00
7159;DHT22;63175;52.374;13.132;2024-03-08T10:26:10;15.50;46.80
7159;DHT22;63175;52.374;13.132;2024-03-08T10:28:40;15.70;46.10
7159;DHT22;63175;52.374;13.132;2024-03-08T10:31:07;15.80;45.60
7159;DHT22;63175;52.374;13.132;2024-03-08T10:33:34;15.80;45.10
7159;DHT22;63175;52.374;13.132;2024-03-08T10:36:01;15.90;45.30
7159;DHT22;63175;52.374;13.132;2024-03-08T10:38:32;16.00;44.50
7159;DHT22;63175;52.374;13.132;2024-03-08T10:41:00;16.10;44.60
7159;DHT22;63175;52.374;13.132;2024-03-08T10:43:28;16.10;44.40
7159;DHT22;63175;52.374;13.132;2024-03-08T10:46:09;16.10;44.20
7159;DHT22;63175;52.374;13.132;2024-03-08T10:48:43;16.20;44.10
7159;DHT22;63175;52.374;13.132;2024-03-08T10:51:11;16.30;43.50
7159;DHT22;63175;52.374;13.132;2024-03-08T10:53:40;16.40;43.20
7159;DHT22;63175;52.374;13.132;2024-03-08T10:56:07;16.40;42.60
7159;DHT22;63175;52.374;13.132;2024-03-08T10:58:36;16.40;42.50
7159;DHT22;63175;52.374;13.132;2024-03-08T11:01:04;16.50;42.30
7159;DHT22;63175;52.374;13.132;2024-03-08T11:03:44;16.60;42.00
7159;DHT22;63175;52.374;13.132;2024-03-08T11:06:15;16.60;41.50
7159;DHT22;63175;52.374;13.132;2024-03-08T11:08:44;16.60;41.40
7159;DHT22;63175;52.374;13.132;2024-03-08T11:11:24;16.70;40.70
7159;DHT22;63175;52.374;13.132;2024-03-08T11:13:52;16.70;39.20
7159;DHT22;63175;52.374;13.132;2024-03-08T11:16:37;16.70;39.20
7159;DHT22;63175;52.374;13.132;2024-03-08T11:19:07;16.80;39.10
7159;DHT22;63175;52.374;13.132;2024-03-08T11:21:57;16.70;38.80
7159;DHT22;63175;52.374;13.132;2024-03-08T11:24:25;16.70;39.10
7159;DHT22;63175;52.374;13.132;2024-03-08T11:26:57;16.80;39.10
7159;DHT22;63175;52.374;13.132;2024-03-08T11:29:33;16.70;38.80
7159;DHT22;63175;52.374;13.132;2024-03-08T11:32:06;16.70;38.60
7159;DHT22;63175;52.374;13.132;2024-03-08T11:34:33;16.70;38.30
7159;DHT22;63175;52.374;13.132;2024-03-08T11:37:00;16.60;38.90
7159;DHT22;63175;52.374;13.132;2024-03-08T11:39:31;16.60;39.10
7159;DHT22;63175;52.374;13.132;2024-03-08T11:41:58;16.60;38.80
7159;DHT22;63175;52.374;13.132;2024-03-08T11:44:27;16.60;39.00
7159;DHT22;63175;52.374;13.132;2024-03-08T11:46:54;16.50;39.20
7159;DHT22;63175;52.374;13.132;2024-03-08T11:49:21;16.50;39.20
7159;DHT22;63175;52.374;13.132;2024-03-08T11:51:51;16.50;39.00
7159;DHT22;63175;52.374;13.132;2024-03-08T11:54:19;16.60;38.80
7159;DHT22;63175;52.374;13.132;2024-03-08T11:56:47;16.60;39.00
7159;DHT22;63175;52.374;13.132;2024-03-08T11:59:14;16.70;38.80
7159;DHT22;63175;52.374;13.132;2024-03-08T12:01:43;16.70;38.40
7159;DHT22;63175;52.374;13.132;2024-03-08T12:04:12;16.70;38.00
7159;DHT22;63175;52.374;13.132;2024-03-08T12:06:40;16.60;37.40
7159;DHT22;63175;52.374;13.132;2024-03-08T12:09:10;16.60;37.50
7159;DHT22;63175;52.374;13.132;2024-03-08T12:11:37;16.50;37.40
7159;DHT22;63175;52.374;13.132;2024-03-08T12:14:06;16.40;37.30
7159;DHT22;63175;52.374;13.132;2024-03-08T12:16:32;16.40;37.50
7159;DHT22;63175;52.374;13.132;2024-03-08T12:18:59;16.40;37.10
7159;DHT22;63175;52.374;13.132;2024-03-08T12:21:31;16.30;37.50
7159;DHT22;63175;52.374;13.132;2024-03-08T12:24:05;16.30;38.30
7159;DHT22;63175;52.374;13.132;2024-03-08T12:26:35;16.30;38.50
7159;DHT22;63175;52.374;13.132;2024-03-08T12:29:17;16.20;38.50
7159;DHT22;63175;52.374;13.132;2024-03-08T12:31:45;16.10;38.10
7159;DHT22;63175;52.374;13.132;2024-03-08T12:34:13;16.00;36.80
7159;DHT22;63175;52.374;13.132;2024-03-08T12:36:45;15.90;36.70
7159;DHT22;63175;52.374;13.132;2024-03-08T12:39:13;15.70;37.30
7159;DHT22;63175;52.374;13.132;2024-03-08T12:41:41;15.50;37.40
7159;DHT22;63175;52.374;13.132;2024-03-08T12:44:08;15.40;37.20
7159;DHT22;63175;52.374;13.132;2024-03-08T12:46:38;15.30;37.60
7159;DHT22;63175;52.374;13.132;2024-03-08T12:49:07;15.20;38.10
7159;DHT22;63175;52.374;13.132;2024-03-08T12:51:35;15.20;36.90
7159;DHT22;63175;52.374;13.132;2024-03-08T12:54:02;15.00;37.00
7159;DHT22;63175;52.374;13.132;2024-03-08T12:56:29;14.90;37.20
7159;DHT22;63175;52.374;13.132;2024-03-08T12:58:58;14.90;37.20
7159;DHT22;63175;52.374;13.132;2024-03-08T13:01:24;14.70;37.30
7159;DHT22;63175;52.374;13.132;2024-03-08T13:03:53;14.70;37.70
7159;DHT22;63175;52.374;13.132;2024-03-08T13:06:21;14.60;37.50
7159;DHT22;63175;52.374;13.132;2024-03-08T13:08:50;14.50;37.00
7159;DHT22;63175;52.374;13.132;2024-03-08T13:11:17;14.50;37.40
7159;DHT22;63175;52.374;13.132;2024-03-08T13:13:44;14.30;37.50
7159;DHT22;63175;52.374;13.132;2024-03-08T13:16:11;14.30;37.70
7159;DHT22;63175;52.374;13.132;2024-03-08T13:18:40;14.20;37.90
7159;DHT22;63175;52.374;13.132;2024-03-08T13:21:10;14.20;38.10
7159;DHT22;63175;52.374;13.132;2024-03-08T13:23:41;14.10;38.60
7159;DHT22;63175;52.374;13.132;2024-03-08T13:26:11;14.00;39.00
7159;DHT22;63175;52.374;13.132;2024-03-08T13:28:40;14.00;39.40
7159;DHT22;63175;52.374;13.132;2024-03-08T13:31:07;14.00;39.60
7159;DHT22;63175;52.374;13.132;2024-03-08T13:33:35;13.90;39.90
7159;DHT22;63175;52.374;13.132;2024-03-08T13:36:02;13.90;39.90
7159;DHT22;63175;52.374;13.132;2024-03-08T13:38:31;13.90;39.80
7159;DHT22;63175;52.374;13.132;2024-03-08T13:40:58;14.00;40.30
7159;DHT22;63175;52.374;13.132;2024-03-08T13:43:25;14.00;40.10
7159;DHT22;63175;52.374;13.132;2024-03-08T13:45:54;14.00;39.70
7159;DHT22;63175;52.374;13.132;2024-03-08T13:48:21;14.00;39.70
7159;DHT22;63175;52.374;13.132;2024-03-08T13:50:48;14.00;39.20
7159;DHT22;63175;52.374;13.132;2024-03-08T13:53:15;14.00;39.50
7159;DHT22;63175;52.374;13.132;2024-03-08T13:55:43;14.00;39.60
